sensor_id;sensor_type;location;lat;lon;timestamp;pressure;altitude;pressure_sealevel;temperature;humidity
23659;BME280;12006;42.666;23.326;2023-02-20T00:01:52;-20970.22;;;11.23;100.00
23659;BME280;12006;42.666;23.326;2023-02-20T00:04:18;-20968.91;;;11.19;100.00
23659;BME280;12006;42.666;23.326;2023-02-20T00:06:44;-20968.91;;;11.19;100.00
23659;BME280;12006;42.666;23.326;2023-02-20T00:09:09;-20966.72;;;11.11;100.00
23659;BME280;12006;42.666;23.326;2023-02-20T00:11:35;-20967.31;;;11.13;100.00
23659;BME280;12006;42.666;23.326;2023-02-20T00:14:01;-20965.84;;;11.08;100.00
23659;BME280;12006;42.666;23.326;2023-02-20T00:16:26;-20964.97;;;11.05;100.00
23659;BME280;12006;42.666;23.326;2023-02-20T00:18:52;-20964.53;;;11.04;100.00
23659;BME280;12006;42.666;23.326;2023-02-20T00:21:17;-21282.75;;;11.01;100.00
23659;BME280;12006;42.666;23.326;2023-02-20T00:23:43;-21281.56;;;10.97;100.00
23659;BME280;12006;42.666;23.326;2023-02-20T00:26:13;-21280.97;;;10.95;100.00
23659;BME280;12006;42.666;23.326;2023-02-20T00:28:38;-21279.50;;;10.90;100.00
23659;BME280;12006;42.666;23.326;2023-02-20T00:31:12;-21278.59;;;10.88;100.00
23659;BME280;12006;42.666;23.326;2023-02-20T00:33:39;-21276.38;;;10.80;100.00
23659;BME280;12006;42.666;23.326;2023-02-20T00:36:05;-21278.31;;;10.87;100.00
23659;BME280;12006;42.666;23.326;2023-02-20T00:38:31;-21595.31;;;10.81;100.00
23659;BME280;12006;42.666;23.326;2023-02-20T00:40:56;-21595.16;;;10.80;100.00
23659;BME280;12006;42.666;23.326;2023-02-20T00:43:21;-21593.22;;;10.74;100.00
23659;BME280;12006;42.666;23.326;2023-02-20T00:45:47;-21594.56;;;10.78;100.00
23659;BME280;12006;42.666;23.326;2023-02-20T00:48:12;-21593.66;;;10.75;100.00
23659;BME280;12006;42.666;23.326;2023-02-20T00:50:38;-21592.00;;;10.70;100.00
23659;BME280;12006;42.666;23.326;2023-02-20T00:53:03;-21592.00;;;10.70;100.00
23659;BME280;12006;42.666;23.326;2023-02-20T00:55:28;-21589.44;;;10.61;100.00
23659;BME280;12006;42.666;23.326;2023-02-20T00:57:54;-21588.38;;;10.58;100.00
23659;BME280;12006;42.666;23.326;2023-02-20T01:00:28;-21587.63;;;10.55;100.00
23659;BME280;12006;42.666;23.326;2023-02-20T01:02:53;-21585.97;;;10.50;100.00
23659;BME280;12006;42.666;23.326;2023-02-20T01:05:19;-21582.34;;;10.38;100.00
23659;BME280;12006;42.666;23.326;2023-02-20T01:07:45;-21584.16;;;10.44;100.00
23659;BME280;12006;42.666;23.326;2023-02-20T01:10:11;-21901.66;;;10.40;100.00
23659;BME280;12006;42.666;23.326;2023-02-20T01:12:36;-21899.97;;;10.35;100.00
23659;BME280;12006;42.666;23.326;2023-02-20T01:15:04;-21898.13;;;10.29;100.00
23659;BME280;12006;42.666;23.326;2023-02-20T01:17:30;-21897.81;;;10.28;100.00
23659;BME280;12006;42.666;23.326;2023-02-20T01:19:56;-21896.59;;;10.24;100.00
23659;BME280;12006;42.666;23.326;2023-02-20T01:22:22;-21896.91;;;10.25;100.00
23659;BME280;12006;42.666;23.326;2023-02-20T01:24:47;-21896.59;;;10.24;100.00
23659;BME280;12006;42.666;23.326;2023-02-20T01:27:13;-21895.84;;;10.22;100.00
23659;BME280;12006;42.666;23.326;2023-02-20T01:29:38;-22215.69;;;10.26;100.00
23659;BME280;12006;42.666;23.326;2023-02-20T01:32:04;-22216.00;;;10.27;100.00
23659;BME280;12006;42.666;23.326;2023-02-20T01:34:29;-22217.41;;;10.31;100.00
23659;BME280;12006;42.666;23.326;2023-02-20T01:36:55;-22216.31;;;10.28;100.00
23659;BME280;12006;42.666;23.326;2023-02-20T01:39:25;-22218.78;;;10.36;100.00
23659;BME280;12006;42.666;23.326;2023-02-20T01:41:56;-22537.28;;;10.36;100.00
23659;BME280;12006;42.666;23.326;2023-02-20T01:44:25;-22536.34;;;10.33;100.00
23659;BME280;12006;42.666;23.326;2023-02-20T01:46:55;-22538.09;;;10.38;100.00
23659;BME280;12006;42.666;23.326;2023-02-20T01:52:14;-22857.38;;;10.41;100.00
23659;BME280;12006;42.666;23.326;2023-02-20T01:54:42;-22857.69;;;10.42;100.00
23659;BME280;12006;42.666;23.326;2023-02-20T01:57:13;-22857.69;;;10.42;100.00
23659;BME280;12006;42.666;23.326;2023-02-20T01:59:42;-22855.28;;;10.34;100.00
23659;BME280;12006;42.666;23.326;2023-02-20T02:02:09;-22852.84;;;10.27;100.00
23659;BME280;12006;42.666;23.326;2023-02-20T02:04:36;-23171.72;;;10.28;100.00
23659;BME280;12006;42.666;23.326;2023-02-20T02:07:03;-23168.94;;;10.20;100.00
23659;BME280;12006;42.666;23.326;2023-02-20T02:12:00;-23166.66;;;10.13;100.00
23659;BME280;12006;42.666;23.326;2023-02-20T02:14:25;-23162.72;;;10.01;100.00
23659;BME280;12006;42.666;23.326;2023-02-20T02:16:57;-22840.91;;;9.90;100.00
23659;BME280;12006;42.666;23.326;2023-02-20T02:41:22;-22192.09;;;9.51;100.00
23659;BME280;12006;42.666;23.326;2023-02-20T02:43:56;-22187.56;;;9.37;100.00
23659;BME280;12006;42.666;23.326;2023-02-20T02:52:04;-22502.03;;;9.26;100.00
23659;BME280;12006;42.666;23.326;2023-02-20T02:54:31;-22501.09;;;9.23;100.00
23659;BME280;12006;42.666;23.326;2023-02-20T02:57:19;-22502.03;;;9.26;100.00
23659;BME280;12006;42.666;23.326;2023-02-20T02:59:46;-22502.50;;;9.27;100.00
23659;BME280;12006;42.666;23.326;2023-02-20T03:02:16;-22184.28;;;9.26;100.00
23659;BME280;12006;42.666;23.326;2023-02-20T03:04:46;-22184.75;;;9.28;100.00
23659;BME280;12006;42.666;23.326;2023-02-20T03:07:14;-22185.06;;;9.29;100.00
23659;BME280;12006;42.666;23.326;2023-02-20T03:09:54;-22185.06;;;9.29;100.00
23659;BME280;12006;42.666;23.326;2023-02-20T03:12:21;-22185.38;;;9.30;100.00
23659;BME280;12006;42.666;23.326;2023-02-20T03:15:05;-22185.53;;;9.30;100.00
23659;BME280;12006;42.666;23.326;2023-02-20T03:18:17;-22183.97;;;9.25;100.00
23659;BME280;12006;42.666;23.326;2023-02-20T03:20:53;-22182.56;;;9.21;100.00
23659;BME280;12006;42.666;23.326;2023-02-20T03:23:25;-22183.19;;;9.23;100.00
23659;BME280;12006;42.666;23.326;2023-02-20T03:25:56;-22181.78;;;9.18;100.00
23659;BME280;12006;42.666;23.326;2023-02-20T03:31:10;-22181.00;;;9.16;100.00
23659;BME280;12006;42.666;23.326;2023-02-20T03:33:40;-21862.50;;;9.14;100.00
23659;BME280;12006;42.666;23.326;2023-02-20T03:36:37;-21860.97;;;9.09;100.00
23659;BME280;12006;42.666;23.326;2023-02-20T03:39:24;-21860.66;;;9.08;100.00
23659;BME280;12006;42.666;23.326;2023-02-20T03:42:12;-21860.03;;;9.06;100.00
23659;BME280;12006;42.666;23.326;2023-02-20T03:44:59;-21858.50;;;9.01;100.00
23659;BME280;12006;42.666;23.326;2023-02-20T03:47:26;-21858.50;;;9.01;100.00
23659;BME280;12006;42.666;23.326;2023-02-20T03:49:53;-21857.28;;;8.97;100.00
23659;BME280;12006;42.666;23.326;2023-02-20T03:52:20;-21856.97;;;8.96;100.00
23659;BME280;12006;42.666;23.326;2023-02-20T03:54:46;-21856.34;;;8.94;100.00
23659;BME280;12006;42.666;23.326;2023-02-20T03:57:15;-21856.03;;;8.93;100.00
23659;BME280;12006;42.666;23.326;2023-02-20T04:00:02;-21855.28;;;8.91;100.00
23659;BME280;12006;42.666;23.326;2023-02-20T04:02:36;-21535.22;;;8.83;100.00
23659;BME280;12006;42.666;23.326;2023-02-20T04:05:07;-21535.22;;;8.83;100.00
23659;BME280;12006;42.666;23.326;2023-02-20T04:07:44;-21537.19;;;8.90;100.00
23659;BME280;12006;42.666;23.326;2023-02-20T04:10:15;-21539.16;;;8.96;100.00
23659;BME280;12006;42.666;23.326;2023-02-20T04:12:44;-21221.91;;;8.98;100.00
23659;BME280;12006;42.666;23.326;2023-02-20T04:15:11;-21223.69;;;9.04;100.00
23659;BME280;12006;42.666;23.326;2023-02-20T04:17:49;-21225.16;;;9.09;100.00
23659;BME280;12006;42.666;23.326;2023-02-20T04:20:16;-21226.34;;;9.13;100.00
23659;BME280;12006;42.666;23.326;2023-02-20T04:22:44;-21227.41;;;9.16;100.00
23659;BME280;12006;42.666;23.326;2023-02-20T04:25:33;-21227.41;;;9.16;100.00
23659;BME280;12006;42.666;23.326;2023-02-20T04:28:02;-21227.41;;;9.16;100.00
23659;BME280;12006;42.666;23.326;2023-02-20T04:30:28;-21227.53;;;9.17;100.00
23659;BME280;12006;42.666;23.326;2023-02-20T04:32:54;-21226.66;;;9.14;100.00
23659;BME280;12006;42.666;23.326;2023-02-20T04:35:20;-21224.88;;;9.08;100.00
23659;BME280;12006;42.666;23.326;2023-02-20T04:37:46;-21541.56;;;9.04;100.00
23659;BME280;12006;42.666;23.326;2023-02-20T04:40:12;-21539.16;;;8.96;100.00
23659;BME280;12006;42.666;23.326;2023-02-20T04:42:38;-21535.69;;;8.85;100.00
23659;BME280;12006;42.666;23.326;2023-02-20T04:45:04;-21217.28;;;8.83;100.00
23659;BME280;12006;42.666;23.326;2023-02-20T04:47:29;-21216.41;;;8.80;100.00
23659;BME280;12006;42.666;23.326;2023-02-20T04:49:54;-20578.97;;;8.73;100.00
23659;BME280;12006;42.666;23.326;2023-02-20T04:52:20;-20580.25;;;8.78;100.00
23659;BME280;12006;42.666;23.326;2023-02-20T04:54:46;-20579.38;;;8.75;100.00
23659;BME280;12006;42.666;23.326;2023-02-20T04:57:13;-20261.72;;;8.75;100.00
23659;BME280;12006;42.666;23.326;2023-02-20T04:59:38;-19944.72;;;8.78;100.00
23659;BME280;12006;42.666;23.326;2023-02-20T05:02:04;-19626.28;;;8.76;100.00
23659;BME280;12006;42.666;23.326;2023-02-20T05:04:29;-19625.75;;;8.74;100.00
23659;BME280;12006;42.666;23.326;2023-02-20T05:06:55;-19625.22;;;8.72;100.00
23659;BME280;12006;42.666;23.326;2023-02-20T05:09:22;-19306.94;;;8.71;100.00
23659;BME280;12006;42.666;23.326;2023-02-20T05:11:48;-19305.75;;;8.66;100.00
23659;BME280;12006;42.666;23.326;2023-02-20T05:14:14;-18986.56;;;8.61;100.00
23659;BME280;12006;42.666;23.326;2023-02-20T05:16:40;-18985.53;;;8.57;100.00
23659;BME280;12006;42.666;23.326;2023-02-20T05:19:07;-18666.66;;;8.53;100.00
23659;BME280;12006;42.666;23.326;2023-02-20T05:21:33;-18666.13;;;8.51;100.00
23659;BME280;12006;42.666;23.326;2023-02-20T05:24:18;-18347.03;;;8.46;100.00
23659;BME280;12006;42.666;23.326;2023-02-20T05:26:43;-18346.03;;;8.43;100.00
23659;BME280;12006;42.666;23.326;2023-02-20T05:29:09;-18344.41;;;8.36;100.00
23659;BME280;12006;42.666;23.326;2023-02-20T05:31:37;-18345.16;;;8.39;100.00
23659;BME280;12006;42.666;23.326;2023-02-20T05:34:03;-18340.16;;;8.19;100.00
23659;BME280;12006;42.666;23.326;2023-02-20T05:36:29;-18344.78;;;8.38;100.00
23659;BME280;12006;42.666;23.326;2023-02-20T05:38:54;-18345.28;;;8.40;100.00
23659;BME280;12006;42.666;23.326;2023-02-20T05:41:20;-18663.31;;;8.41;100.00
23659;BME280;12006;42.666;23.326;2023-02-20T05:43:45;-18662.94;;;8.39;100.00
23659;BME280;12006;42.666;23.326;2023-02-20T05:46:13;-18981.22;;;8.41;100.00
23659;BME280;12006;42.666;23.326;2023-02-20T05:48:38;-18981.09;;;8.41;100.00
23659;BME280;12006;42.666;23.326;2023-02-20T05:51:03;-19298.03;;;8.38;100.00
23659;BME280;12006;42.666;23.326;2023-02-20T05:53:30;-19298.28;;;8.39;100.00
23659;BME280;12006;42.666;23.326;2023-02-20T05:55:56;-19298.56;;;8.40;100.00
23659;BME280;12006;42.666;23.326;2023-02-20T05:58:21;-19296.03;;;8.30;100.00
23659;BME280;12006;42.666;23.326;2023-02-20T06:00:47;-19299.34;;;8.43;100.00
23659;BME280;12006;42.666;23.326;2023-02-20T06:03:14;-19300.28;;;8.46;100.00
23659;BME280;12006;42.666;23.326;2023-02-20T06:05:39;-19620.59;;;8.55;100.00
23659;BME280;12006;42.666;23.326;2023-02-20T06:08:05;-19298.03;;;8.38;100.00
23659;BME280;12006;42.666;23.326;2023-02-20T06:10:30;-18988.91;;;8.70;100.00
23659;BME280;12006;42.666;23.326;2023-02-20T06:12:56;-18990.22;;;8.75;100.00
23659;BME280;12006;42.666;23.326;2023-02-20T06:15:22;-18359.06;;;8.94;100.00
23659;BME280;12006;42.666;23.326;2023-02-20T06:17:47;-18359.56;;;8.96;100.00
23659;BME280;12006;42.666;23.326;2023-02-20T06:20:12;-18681.34;;;9.10;100.00
23659;BME280;12006;42.666;23.326;2023-02-20T06:22:38;-18682.50;;;9.15;100.00
23659;BME280;12006;42.666;23.326;2023-02-20T06:25:04;-18683.38;;;9.18;100.00
23659;BME280;12006;42.666;23.326;2023-02-20T06:27:30;-18685.81;;;9.28;100.00
23659;BME280;12006;42.666;23.326;2023-02-20T06:29:56;-18686.59;;;9.31;100.00
23659;BME280;12006;42.666;23.326;2023-02-20T06:32:21;-19009.13;;;9.47;100.00
23659;BME280;12006;42.666;23.326;2023-02-20T06:34:46;-19010.56;;;9.53;100.00
23659;BME280;12006;42.666;23.326;2023-02-20T06:37:12;-19012.63;;;9.61;100.00
23659;BME280;12006;42.666;23.326;2023-02-20T06:39:37;-19008.47;;;9.45;98.27
23659;BME280;12006;42.666;23.326;2023-02-20T06:42:04;-19014.97;;;9.69;96.35
23659;BME280;12006;42.666;23.326;2023-02-20T06:44:30;-18695.66;;;9.66;93.99
23659;BME280;12006;42.666;23.326;2023-02-20T06:46:57;-18695.28;;;9.64;93.23
23659;BME280;12006;42.666;23.326;2023-02-20T06:49:23;-18373.34;;;9.51;93.80
23659;BME280;12006;42.666;23.326;2023-02-20T06:51:51;-18051.03;;;9.35;93.89
23659;BME280;12006;42.666;23.326;2023-02-20T06:54:17;-18049.19;;;9.27;95.04
23659;BME280;12006;42.666;23.326;2023-02-20T06:56:44;-18048.44;;;9.24;97.29
23659;BME280;12006;42.666;23.326;2023-02-20T06:59:09;-18048.06;;;9.23;98.21
23659;BME280;12006;42.666;23.326;2023-02-20T07:01:39;-17728.13;;;9.16;98.72
23659;BME280;12006;42.666;23.326;2023-02-20T07:04:06;-17728.72;;;9.18;98.84
23659;BME280;12006;42.666;23.326;2023-02-20T07:06:32;-18047.72;;;9.21;97.97
23659;BME280;12006;42.666;23.326;2023-02-20T07:08:57;-18049.31;;;9.28;96.61
23659;BME280;12006;42.666;23.326;2023-02-20T07:11:23;-18050.41;;;9.32;94.42
23659;BME280;12006;42.666;23.326;2023-02-20T07:13:48;-18052.13;;;9.39;92.86
23659;BME280;12006;42.666;23.326;2023-02-20T07:16:15;-17733.41;;;9.38;88.61
23659;BME280;12006;42.666;23.326;2023-02-20T07:18:40;-17734.72;;;9.43;87.62
23659;BME280;12006;42.666;23.326;2023-02-20T07:21:06;-18056.91;;;9.59;85.49
23659;BME280;12006;42.666;23.326;2023-02-20T07:23:31;-17418.78;;;9.54;80.14
23659;BME280;12006;42.666;23.326;2023-02-20T07:25:57;-17419.72;;;9.58;80.99
23659;BME280;12006;42.666;23.326;2023-02-20T07:28:22;-17419.97;;;9.59;79.07
23659;BME280;12006;42.666;23.326;2023-02-20T07:30:48;-17421.38;;;9.64;77.67
23659;BME280;12006;42.666;23.326;2023-02-20T07:33:14;-17422.06;;;9.67;76.27
23659;BME280;12006;42.666;23.326;2023-02-20T07:35:39;-17420.91;;;9.63;75.45
23659;BME280;12006;42.666;23.326;2023-02-20T07:38:05;-17100.53;;;9.55;74.93
23659;BME280;12006;42.666;23.326;2023-02-20T07:40:30;-17099.03;;;9.48;75.47
23659;BME280;12006;42.666;23.326;2023-02-20T07:42:56;-16779.22;;;9.42;75.50
23659;BME280;12006;42.666;23.326;2023-02-20T07:45:21;-16458.88;;;9.34;73.84
23659;BME280;12006;42.666;23.326;2023-02-20T07:47:47;-16457.56;;;9.28;74.57
23659;BME280;12006;42.666;23.326;2023-02-20T07:50:14;-16457.34;;;9.27;73.85
23659;BME280;12006;42.666;23.326;2023-02-20T07:52:39;-16457.66;;;9.28;72.79
23659;BME280;12006;42.666;23.326;2023-02-20T07:55:05;-16458.97;;;9.34;73.44
23659;BME280;12006;42.666;23.326;2023-02-20T07:57:32;-16458.88;;;9.34;71.97
23659;BME280;12006;42.666;23.326;2023-02-20T07:59:59;-16139.75;;;9.31;72.37
23659;BME280;12006;42.666;23.326;2023-02-20T08:02:24;-16459.63;;;9.37;72.96
23659;BME280;12006;42.666;23.326;2023-02-20T08:04:49;-16459.75;;;9.38;71.89
23659;BME280;12006;42.666;23.326;2023-02-20T08:07:15;-16462.16;;;9.49;72.21
23659;BME280;12006;42.666;23.326;2023-02-20T08:09:40;-16780.56;;;9.48;72.57
23659;BME280;12006;42.666;23.326;2023-02-20T08:12:05;-16782.47;;;9.57;71.09
23659;BME280;12006;42.666;23.326;2023-02-20T08:14:31;-16785.81;;;9.71;68.92
23659;BME280;12006;42.666;23.326;2023-02-20T08:16:56;-16785.50;;;9.70;69.87
23659;BME280;12006;42.666;23.326;2023-02-20T08:19:22;-17106.59;;;9.81;68.76
23659;BME280;12006;42.666;23.326;2023-02-20T08:21:47;-17430.06;;;10.01;68.69
23659;BME280;12006;42.666;23.326;2023-02-20T08:24:13;-17111.31;;;10.01;67.21
23659;BME280;12006;42.666;23.326;2023-02-20T08:26:43;-17109.72;;;9.94;68.11
23659;BME280;12006;42.666;23.326;2023-02-20T08:29:09;-17106.94;;;9.82;67.88
23659;BME280;12006;42.666;23.326;2023-02-20T08:31:34;-16784.47;;;9.65;68.81
23659;BME280;12006;42.666;23.326;2023-02-20T08:33:59;-16785.94;;;9.72;69.38
23659;BME280;12006;42.666;23.326;2023-02-20T08:36:25;-17107.88;;;9.86;69.06
23659;BME280;12006;42.666;23.326;2023-02-20T08:38:50;-17109.72;;;9.94;68.83
23659;BME280;12006;42.666;23.326;2023-02-20T08:41:16;-17430.53;;;10.03;68.09
23659;BME280;12006;42.666;23.326;2023-02-20T08:43:42;-17106.03;;;9.78;68.75
23659;BME280;12006;42.666;23.326;2023-02-20T08:46:08;-17107.19;;;9.83;68.80
23659;BME280;12006;42.666;23.326;2023-02-20T08:48:34;-17108.78;;;9.90;68.20
23659;BME280;12006;42.666;23.326;2023-02-20T08:51:00;-17107.53;;;9.85;67.79
23659;BME280;12006;42.666;23.326;2023-02-20T08:53:25;-17429.34;;;9.98;68.40
23659;BME280;12006;42.666;23.326;2023-02-20T08:55:51;-17429.81;;;10.00;68.43
23659;BME280;12006;42.666;23.326;2023-02-20T08:58:20;-17432.41;;;10.11;67.75
23659;BME280;12006;42.666;23.326;2023-02-20T09:00:47;-17753.31;;;10.20;67.22
23659;BME280;12006;42.666;23.326;2023-02-20T09:03:13;-17756.56;;;10.33;66.03
23659;BME280;12006;42.666;23.326;2023-02-20T09:05:38;-17434.63;;;10.21;65.02
23659;BME280;12006;42.666;23.326;2023-02-20T09:08:04;-17434.75;;;10.21;65.18
23659;BME280;12006;42.666;23.326;2023-02-20T09:10:29;-17434.84;;;10.22;64.89
23659;BME280;12006;42.666;23.326;2023-02-20T09:12:55;-17433.22;;;10.15;64.37
23659;BME280;12006;42.666;23.326;2023-02-20T09:15:20;-17433.56;;;10.16;65.08
23659;BME280;12006;42.666;23.326;2023-02-20T09:17:50;-17432.88;;;10.13;64.65
23659;BME280;12006;42.666;23.326;2023-02-20T09:20:17;-17433.34;;;10.15;64.24
23659;BME280;12006;42.666;23.326;2023-02-20T09:22:45;-17756.44;;;10.33;64.10
23659;BME280;12006;42.666;23.326;2023-02-20T09:25:11;-18080.19;;;10.53;63.35
23659;BME280;12006;42.666;23.326;2023-02-20T09:27:37;-18079.44;;;10.50;63.62
23659;BME280;12006;42.666;23.326;2023-02-20T09:30:04;-17759.44;;;10.45;63.78
23659;BME280;12006;42.666;23.326;2023-02-20T09:32:29;-17760.28;;;10.49;63.76
23659;BME280;12006;42.666;23.326;2023-02-20T09:34:55;-18079.94;;;10.52;64.42
23659;BME280;12006;42.666;23.326;2023-02-20T09:37:22;-18081.88;;;10.60;64.26
23659;BME280;12006;42.666;23.326;2023-02-20T09:39:47;-18081.16;;;10.57;64.78
23659;BME280;12006;42.666;23.326;2023-02-20T09:42:25;-18404.84;;;10.76;64.01
23659;BME280;12006;42.666;23.326;2023-02-20T09:45:21;-18727.56;;;10.90;63.63
23659;BME280;12006;42.666;23.326;2023-02-20T09:50:28;-19050.66;;;11.05;63.20
23659;BME280;12006;42.666;23.326;2023-02-20T09:53:26;-19052.09;;;11.11;62.56
23659;BME280;12006;42.666;23.326;2023-02-20T09:55:55;-18730.25;;;11.00;62.96
23659;BME280;12006;42.666;23.326;2023-02-20T09:58:38;-18731.25;;;11.04;61.32
23659;BME280;12006;42.666;23.326;2023-02-20T10:01:05;-18733.31;;;11.12;60.32
23659;BME280;12006;42.666;23.326;2023-02-20T10:06:17;-19058.59;;;11.36;59.76
23659;BME280;12006;42.666;23.326;2023-02-20T10:08:44;-19059.00;;;11.37;59.09
23659;BME280;12006;42.666;23.326;2023-02-20T10:14:33;-18736.75;;;11.26;57.26
23659;BME280;12006;42.666;23.326;2023-02-20T10:17:08;-18738.53;;;11.33;57.09
23659;BME280;12006;42.666;23.326;2023-02-20T10:22:13;-19062.91;;;11.52;55.05
23659;BME280;12006;42.666;23.326;2023-02-20T10:30:16;-19062.13;;;11.49;54.96
23659;BME280;12006;42.666;23.326;2023-02-20T10:32:48;-18738.03;;;11.31;54.69
23659;BME280;12006;42.666;23.326;2023-02-20T10:35:40;-18742.22;;;11.47;54.99
23659;BME280;12006;42.666;23.326;2023-02-20T10:38:10;-18744.66;;;11.56;53.25
23659;BME280;12006;42.666;23.326;2023-02-20T10:40:41;-18741.72;;;11.45;53.41
23659;BME280;12006;42.666;23.326;2023-02-20T10:46:13;-19068.88;;;11.75;52.89
23659;BME280;12006;42.666;23.326;2023-02-20T10:48:42;-18746.56;;;11.64;52.87
23659;BME280;12006;42.666;23.326;2023-02-20T10:51:21;-18747.06;;;11.66;52.65
23659;BME280;12006;42.666;23.326;2023-02-20T10:54:20;-18746.19;;;11.62;52.77
23659;BME280;12006;42.666;23.326;2023-02-20T10:57:22;-18750.91;;;11.81;49.92
23659;BME280;12006;42.666;23.326;2023-02-20T11:00:08;-19395.00;;;12.00;52.57
23659;BME280;12006;42.666;23.326;2023-02-20T11:02:39;-19392.75;;;11.91;52.23
23659;BME280;12006;42.666;23.326;2023-02-20T11:05:16;-19071.59;;;11.85;52.24
23659;BME280;12006;42.666;23.326;2023-02-20T11:07:43;-19395.25;;;12.01;52.60
23659;BME280;12006;42.666;23.326;2023-02-20T11:10:09;-19717.81;;;12.11;52.81
23659;BME280;12006;42.666;23.326;2023-02-20T11:12:41;-20041.44;;;12.26;52.17
23659;BME280;12006;42.666;23.326;2023-02-20T11:15:11;-20046.00;;;12.42;51.15
23659;BME280;12006;42.666;23.326;2023-02-20T11:17:39;-20041.72;;;12.27;51.77
23659;BME280;12006;42.666;23.326;2023-02-20T11:22:56;-20695.75;;;12.78;50.27
23659;BME280;12006;42.666;23.326;2023-02-20T11:25:28;-20372.63;;;12.67;50.29
23659;BME280;12006;42.666;23.326;2023-02-20T11:28:01;-20371.06;;;12.61;51.48
23659;BME280;12006;42.666;23.326;2023-02-20T11:30:38;-20368.84;;;12.53;52.01
23659;BME280;12006;42.666;23.326;2023-02-20T11:33:16;-20370.66;;;12.60;52.61
23659;BME280;12006;42.666;23.326;2023-02-20T11:35:48;-20366.44;;;12.45;53.00
23659;BME280;12006;42.666;23.326;2023-02-20T11:38:21;-20365.31;;;12.41;53.21
23659;BME280;12006;42.666;23.326;2023-02-20T11:45:46;-20365.75;;;12.42;53.34
23659;BME280;12006;42.666;23.326;2023-02-20T11:48:17;-20368.84;;;12.53;52.68
23659;BME280;12006;42.666;23.326;2023-02-20T11:50:46;-20367.16;;;12.47;52.51
23659;BME280;12006;42.666;23.326;2023-02-20T11:53:28;-20366.03;;;12.43;53.04
23659;BME280;12006;42.666;23.326;2023-02-20T11:56:13;-20046.00;;;12.42;52.68
23659;BME280;12006;42.666;23.326;2023-02-20T11:58:40;-20045.44;;;12.40;52.79
23659;BME280;12006;42.666;23.326;2023-02-20T12:01:07;-20045.03;;;12.39;52.61
23659;BME280;12006;42.666;23.326;2023-02-20T12:03:55;-19720.53;;;12.21;52.99
23659;BME280;12006;42.666;23.326;2023-02-20T12:09:02;-19718.09;;;12.12;52.65
23659;BME280;12006;42.666;23.326;2023-02-20T12:11:29;-19718.91;;;12.15;52.30
23659;BME280;12006;42.666;23.326;2023-02-20T12:13:57;-19397.50;;;12.09;51.57
23659;BME280;12006;42.666;23.326;2023-02-20T12:22:25;-19721.06;;;12.23;51.70
23659;BME280;12006;42.666;23.326;2023-02-20T12:41:26;-19719.44;;;12.17;51.86
23659;BME280;12006;42.666;23.326;2023-02-20T12:47:40;-20042.13;;;12.28;52.03
23659;BME280;12006;42.666;23.326;2023-02-20T13:00:38;-20046.41;;;12.44;52.38
23659;BME280;12006;42.666;23.326;2023-02-20T13:03:34;-20046.69;;;12.45;51.62
23659;BME280;12006;42.666;23.326;2023-02-20T13:06:04;-19724.03;;;12.34;51.13
23659;BME280;12006;42.666;23.326;2023-02-20T13:08:33;-20045.16;;;12.39;51.16
23659;BME280;12006;42.666;23.326;2023-02-20T13:11:03;-20048.06;;;12.50;51.70
23659;BME280;12006;42.666;23.326;2023-02-20T13:16:50;-20370.38;;;12.59;51.53
23659;BME280;12006;42.666;23.326;2023-02-20T13:19:25;-20369.94;;;12.57;51.45
23659;BME280;12006;42.666;23.326;2023-02-20T13:21:55;-20045.72;;;12.41;51.25
23659;BME280;12006;42.666;23.326;2023-02-20T13:26:49;-20046.69;;;12.45;51.79
23659;BME280;12006;42.666;23.326;2023-02-20T13:29:22;-20047.78;;;12.49;51.54
23659;BME280;12006;42.666;23.326;2023-02-20T13:31:55;-20048.34;;;12.51;51.08
23659;BME280;12006;42.666;23.326;2023-02-20T13:34:33;-20049.84;;;12.56;50.88
23659;BME280;12006;42.666;23.326;2023-02-20T13:36:59;-20049.56;;;12.55;50.82
23659;BME280;12006;42.666;23.326;2023-02-20T13:39:33;-20050.13;;;12.57;51.15
23659;BME280;12006;42.666;23.326;2023-02-20T13:42:24;-20369.94;;;12.57;51.87
23659;BME280;12006;42.666;23.326;2023-02-20T13:44:50;-20369.09;;;12.54;52.22
23659;BME280;12006;42.666;23.326;2023-02-20T13:54:58;-20045.44;;;12.40;52.60
23659;BME280;12006;42.666;23.326;2023-02-20T13:57:29;-20045.44;;;12.40;53.14
23659;BME280;12006;42.666;23.326;2023-02-20T14:00:01;-20046.25;;;12.43;53.19
23659;BME280;12006;42.666;23.326;2023-02-20T14:02:26;-20044.88;;;12.38;52.99
23659;BME280;12006;42.666;23.326;2023-02-20T14:05:05;-20044.47;;;12.37;53.96
23659;BME280;12006;42.666;23.326;2023-02-20T14:10:13;-19717.28;;;12.09;54.32
23659;BME280;12006;42.666;23.326;2023-02-20T14:12:39;-19716.59;;;12.07;54.45
23659;BME280;12006;42.666;23.326;2023-02-20T14:15:05;-19716.06;;;12.05;54.57
23659;BME280;12006;42.666;23.326;2023-02-20T14:17:31;-19718.91;;;12.15;54.78
23659;BME280;12006;42.666;23.326;2023-02-20T14:20:01;-19714.84;;;12.01;54.77
23659;BME280;12006;42.666;23.326;2023-02-20T14:22:32;-19718.91;;;12.15;55.04
23659;BME280;12006;42.666;23.326;2023-02-20T14:27:35;-19718.09;;;12.12;55.30
23659;BME280;12006;42.666;23.326;2023-02-20T14:30:12;-19716.88;;;12.08;55.42
23659;BME280;12006;42.666;23.326;2023-02-20T14:32:43;-19716.47;;;12.07;55.27
23659;BME280;12006;42.666;23.326;2023-02-20T14:40:42;-19387.31;;;11.71;57.12
23659;BME280;12006;42.666;23.326;2023-02-20T14:43:17;-19388.91;;;11.77;57.30
23659;BME280;12006;42.666;23.326;2023-02-20T14:45:45;-19064.97;;;11.60;57.32
23659;BME280;12006;42.666;23.326;2023-02-20T14:48:29;-18743.50;;;11.52;58.38
23659;BME280;12006;42.666;23.326;2023-02-20T14:51:04;-18742.47;;;11.48;58.45
23659;BME280;12006;42.666;23.326;2023-02-20T14:53:34;-19060.81;;;11.44;58.52
23659;BME280;12006;42.666;23.326;2023-02-20T14:56:11;-19065.50;;;11.62;58.59
23659;BME280;12006;42.666;23.326;2023-02-20T14:58:37;-19064.72;;;11.59;58.62